AirNav   Air Wisconsin Airman Trainee
 
 587 users online  

AL37 Benedick Airport
Jack, Alabama, USA

GOING TO JACK?


FAA INFORMATION EFFECTIVE 31 JANUARY 2019

Location

FAA Identifier: AL37
Lat/Long: 31-33-18.1000N / 085-58-38.2000W
31-33.301667N / 085-58.636667W
31.5550278 / -85.9772778
(estimated)
Elevation: 335 ft. / 102 m (estimated)
From city: 2 miles SE of JACK, AL
Time zone: UTC -6 (UTC -5 during Daylight Saving Time)
Zip code: 36346

Airport Operations

Airport use: Private use. Permission required prior to landing
Activation date: 06/2008
Control tower: no
ARTCC: JACKSONVILLE CENTER
FSS: ANNISTON FLIGHT SERVICE STATION
Attendance: IRREG
Wind indicator: yes
Segmented circle: no

Airport Communications

WX AWOS-3PT at EDN (16 nm S): 118.9 (334-347-3524)
WX ASOS at TOI (18 nm N): PHONE 334-566-3081

Nearby radio navigation aids

VOR radial/distance  VOR name  Freq  Var
EDNr349/(16.0)ENTERPRISE VOR116.6003W
HEYr306/(19.8)HANCHEY VOR110.6003W
OZRr326/21.4CAIRNS VOR/DME111.2003W
RRSr298/32.3WIREGRASS VORTAC111.6002E

 
NDB name  Hdg/Dist  Freq  Var  ID
BOLL WEEVIL004/12.935203WBVG -... ...- --.
LOWE317/16.726903WLOR .-.. --- .-.
BLOOD162/17.836504WTOI - --- ..
HANCHEY306/19.722103WHYE .... -.-- .
JUDD057/25.926402WJUY .--- ..- -.--

Airport Services

Runway Information

Runway 8/26

Dimensions: 1800 x 50 ft. / 549 x 15 m
Surface: turf, in fair condition
RUNWAY 8  RUNWAY 26
Traffic pattern: leftleft
Obstructions: 40 ft. trees, 200 ft. from runwaynone

Airport Ownership and Management from official FAA records

Ownership: Privately-owned
Owner: RICHARD J BENEDICK
374 COUNTY ROAD 205
JACK, AL 36346
Phone 334-897-0279
Manager: RICHARD J BENEDICK
374 COUNTY ROAD 205
JACK, AL 36346
Phone 334-897-0279

Airport Operational Statistics

Aircraft based on the field: 1
Single engine airplanes: 1
    

Instrument Procedures

There are no published instrument procedures at AL37.

Some nearby airports with instrument procedures:

KEDN - Enterprise Municipal Airport (16 nm S)
KLOR - Lowe Army Heliport (Fort Rucker) (17 nm SE)
KTOI - Troy Municipal Airport at N Kenneth Campbell Field (18 nm N)
71J - Ozark-Blackwell Field Airport (20 nm E)
KHEY - Hanchey Army Heliport (Fort Rucker) (21 nm SE)
 
Loc | Ops | Rwys | IFR | FBO | Links
Com | Nav | Svcs | Stats | Notes
Aerial photo
No photo
 
Sectional chart

 
Airport distance calculator
Flying to Benedick Airport? Find the distance to fly.

From to AL37

Sunrise and sunset
Times for 22-Feb-2019
 Local
(UTC-6)
 Zulu
(UTC)
Morning civil twilight05:5511:55
Sunrise06:2012:20
Sunset17:3523:35
Evening civil twilight18:0024:00

Current date and time
Zulu (UTC)  23-Feb-2019 04:44:01
Local (UTC-6)  22-Feb-2019 22:44:01
 
METAR
KSXS 
13nm SE 
230358Z AUTO 20005KT 10SM OVC100 20/19 A3012 RMK AO2 SLP199 T02020194
KEDN 
16nm S 
230415Z AUTO 00000KT 10SM OVC100 20/20 A3014 RMK AO2 T01970197
KLOR 
17nm SE 
230358Z AUTO 00000KT 10SM OVC100 19/19 A3013 RMK AO2 SLP185 P0000 T01910189
KTOI 
18nm N 
230353Z AUTO 16004KT 10SM OVC100 21/19 A3013 RMK AO2 SLP199 T02110189
KHEY 
21nm SE 
230358Z AUTO 18003KT 10SM OVC100 20/20 A3012 RMK AO2 SLP200 T02000197
KOZR 
21nm SE 
230356Z AUTO 15003KT 10SM OVC100 20/19 A3013 RMK AO2 SLP203 T01990189
K79J 
26nm SW 
230356Z AUTO VRB04KT 10SM OVC014 23/19 A3012 RMK AO2 SLP196 T02280194
TAF
KTOI 
18nm N 
221932Z 2220/2318 21008KT P6SM SCT020 FM230200 17004KT P6SM BKN006 BKN015 FM230600 14006KT 4SM BR OVC007
KOZR 
21nm SE 
230000Z 2300/2406 15006KT 8000 BR BKN020 QNH3010INS BECMG 2303/2304 17005KT 0800 FG OVC005 510023 QNH3010INS BECMG 2315/2316 18012G18KT 9999 NSW FEW013 BKN025 WS020/18031KT 510013 QNH3007INS BECMG 2317/2318 19015G20KT 9999 SCT016 510013 QNH3002INS BECMG 2323/2324 18009KT 9999 BKN016 510013 QNH3002INS BECMG 2403/2404 18009KT 8000 BR OVC001 510203 QNH3000INS TX28/2300Z TN19/2313Z LAST NO AMDS AFT 2307 NEXT 2312
NOTAMs
Click for the latest NOTAMs
NOTAMs are issued by the DoD/FAA and will open in a separate window not controlled by AirNav.

 

 
 

Would you like to see your business listed on this page?

 If your business provides an interesting product or service to pilots, flight crews, aircraft, or users of the Benedick Airport, you should consider listing it here.  To start the listing process, click on the button below
 
Add a business
 

Other Pages about Benedick Airport

Update a link
 
Copyright © AirNav, LLC. All rights reserved. Privacy Policy  Contact